Time;durP1;ratioP1;P1;durP2;ratioP2;P2;SDS_P1;SDS_P2;PMS_P1;PMS_P2;Temp;Humidity;BMP_temperature;BMP_pressure;BME280_temperature;BME280_humidity;BME280_pressure;Samples;Min_cycle;Max_cycle;Signal;HPM_P1;HPM_P2
2023/10/28 00:00:58;;;;;;;;;0.25;0.25;;;;;10.35;86.01;97886.94;5097660;28;8915;-55
2023/10/28 00:03:26;;;;;;;;;1.00;1.00;;;;;10.36;86.17;97888.59;5097753;28;8837;-57
2023/10/28 00:05:54;;;;;;;;;1.50;1.50;;;;;10.36;86.26;97888.59;5097598;28;8857;-58
2023/10/28 00:08:21;;;;;;;;;0.00;0.00;;;;;10.39;85.74;97888.25;5097281;28;8834;-58
2023/10/28 00:10:50;;;;;;;;;0.00;0.00;;;;;10.41;85.64;97890.75;5098371;28;8821;-58
2023/10/28 00:13:18;;;;;;;;;1.00;1.00;;;;;10.41;85.77;97886.22;5098763;28;8814;-57
2023/10/28 00:15:46;;;;;;;;;0.00;0.00;;;;;10.42;86.07;97892.41;5098138;28;9552;-56
2023/10/28 00:18:14;;;;;;;;;0.00;0.00;;;;;10.44;86.05;97896.56;5097828;28;9005;-58
2023/10/28 00:20:44;;;;;;;;;1.50;1.00;;;;;10.47;85.45;97893.53;5097754;28;8860;-57
2023/10/28 00:23:13;;;;;;;;;1.00;0.75;;;;;10.50;86.10;97898.53;5097988;28;8836;-56
2023/10/28 00:25:41;;;;;;;;;1.50;0.25;;;;;10.52;85.49;97893.88;5097109;28;8837;-55
2023/10/28 00:28:09;;;;;;;;;4.00;3.00;;;;;10.56;85.83;97889.84;5097668;28;8826;-58
2023/10/28 00:30:37;;;;;;;;;1.25;0.75;;;;;10.58;85.72;97893.19;5097729;28;8845;-56
2023/10/28 00:33:04;;;;;;;;;0.50;0.50;;;;;10.62;85.41;97889.16;5097919;28;8822;-57
2023/10/28 00:35:32;;;;;;;;;3.00;3.00;;;;;10.63;85.18;97882.81;5097471;28;8822;-58
2023/10/28 00:38:00;;;;;;;;;0.00;0.00;;;;;10.64;85.70;97892.50;5097747;28;8849;-56
2023/10/28 00:40:28;;;;;;;;;0.75;0.75;;;;;10.65;85.33;97886.16;5097178;28;8825;-58
2023/10/28 00:42:56;;;;;;;;;0.00;0.00;;;;;10.68;85.42;97893.78;5097425;28;8841;-57
2023/10/28 00:45:23;;;;;;;;;1.00;1.00;;;;;10.71;85.09;97890.78;5097152;28;8846;-55
2023/10/28 00:47:53;;;;;;;;;1.00;1.00;;;;;10.73;85.32;97888.78;5096935;28;8833;-58
2023/10/28 00:50:23;;;;;;;;;0.75;0.50;;;;;10.78;84.88;97888.25;5096710;28;8899;-58
2023/10/28 00:52:51;;;;;;;;;1.00;1.00;;;;;10.84;84.85;97890.25;5097123;28;8833;-56
2023/10/28 00:55:20;;;;;;;;;1.00;1.00;;;;;10.85;85.25;97890.03;5097015;28;8936;-56
2023/10/28 00:57:48;;;;;;;;;1.00;1.00;;;;;10.86;85.18;97888.22;5097343;28;8848;-58
2023/10/28 01:00:16;;;;;;;;;1.00;1.00;;;;;10.81;84.83;97893.22;5097792;28;8810;-58
2023/10/28 01:02:45;;;;;;;;;2.00;2.00;;;;;10.77;85.09;97897.25;5097224;28;8839;-58
2023/10/28 01:05:13;;;;;;;;;1.00;1.00;;;;;10.69;85.51;97890.13;5097041;28;8838;-56
2023/10/28 01:07:41;;;;;;;;;3.00;1.00;;;;;10.63;85.07;97885.47;5097113;28;8899;-56
2023/10/28 01:10:09;;;;;;;;;1.50;0.75;;;;;10.55;85.43;97880.19;5096847;28;8863;-57
2023/10/28 01:12:37;;;;;;;;;1.00;1.00;;;;;10.47;85.37;97885.56;5097016;28;9576;-58
2023/10/28 01:15:05;;;;;;;;;2.50;2.00;;;;;10.42;85.42;97890.59;5096729;28;8830;-57
2023/10/28 01:17:32;;;;;;;;;1.00;1.00;;;;;10.42;85.87;97890.59;5096654;28;8834;-57
2023/10/28 01:20:00;;;;;;;;;0.50;0.50;;;;;10.41;86.04;97886.22;5096952;28;8840;-57
2023/10/28 01:22:28;;;;;;;;;1.00;1.00;;;;;10.44;85.64;97880.59;5096764;28;8837;-56
2023/10/28 01:24:56;;;;;;;;;0.75;0.75;;;;;10.44;85.47;97875.25;5096777;28;8940;-58
2023/10/28 01:27:24;;;;;;;;;0.75;0.75;;;;;10.43;85.74;97878.94;5095881;28;8836;-58
2023/10/28 01:29:52;;;;;;;;;0.75;0.75;;;;;10.43;85.51;97881.59;5096839;28;8822;-58
2023/10/28 01:32:19;;;;;;;;;3.00;1.00;;;;;10.43;86.07;97876.28;5096492;28;8842;-58
2023/10/28 01:34:49;;;;;;;;;0.00;0.00;;;;;10.48;85.74;97881.06;5095493;28;8818;-56
2023/10/28 01:37:17;;;;;;;;;0.00;0.00;;;;;10.55;85.50;97880.19;5096275;28;8841;-58
2023/10/28 01:39:46;;;;;;;;;1.00;1.00;;;;;10.61;85.35;97884.03;5096694;28;8830;-58
2023/10/28 01:42:14;;;;;;;;;2.00;2.00;;;;;10.68;85.16;97883.16;5096678;28;8822;-57
2023/10/28 01:44:41;;;;;;;;;0.50;0.25;;;;;10.73;85.38;97886.13;5096778;28;8842;-58
2023/10/28 01:47:09;;;;;;;;;0.00;0.00;;;;;10.79;85.02;97885.44;5096474;28;8826;-57
2023/10/28 01:49:37;;;;;;;;;1.00;1.00;;;;;10.87;85.31;97889.88;5096201;28;8826;-58
2023/10/28 01:52:05;;;;;;;;;0.00;0.00;;;;;10.93;84.62;97887.34;5096700;28;8955;-58
2023/10/28 01:54:33;;;;;;;;;0.00;0.00;;;;;10.99;84.80;97886.66;5096536;28;8822;-56
2023/10/28 01:57:00;;;;;;;;;0.75;0.75;;;;;11.05;84.73;97885.09;5096360;28;8840;-58
2023/10/28 01:59:28;;;;;;;;;0.00;0.00;;;;;11.10;84.73;97888.09;5096199;28;8810;-58
2023/10/28 02:01:56;;;;;;;;;0.00;0.00;;;;;11.14;84.53;97884.09;5096927;28;9527;-58
2023/10/28 02:04:24;;;;;;;;;0.25;0.25;;;;;11.17;84.56;97889.88;5096328;28;8903;-58
2023/10/28 02:06:51;;;;;;;;;0.00;0.00;;;;;11.18;84.57;97894.22;5096329;28;8903;-57
2023/10/28 02:09:19;;;;;;;;;3.00;2.50;;;;;11.19;84.82;97898.53;5096103;28;8822;-57
2023/10/28 02:11:48;;;;;;;;;0.00;0.00;;;;;11.18;84.58;97899.53;5096272;28;8829;-58
2023/10/28 02:14:16;;;;;;;;;0.00;0.00;;;;;11.16;84.75;97893.53;5096337;28;8842;-57
2023/10/28 02:16:43;;;;;;;;;0.00;0.00;;;;;11.13;84.82;97893.91;5096098;28;8848;-56
2023/10/28 02:19:11;;;;;;;;;1.00;0.00;;;;;11.09;84.79;97895.25;5095466;28;8842;-58
2023/10/28 02:21:39;;;;;;;;;0.00;0.00;;;;;11.06;84.85;97890.28;5096236;28;8818;-57
2023/10/28 02:24:06;;;;;;;;;0.00;0.00;;;;;11.04;84.61;97897.63;5095807;28;8838;-58
2023/10/28 02:26:35;;;;;;;;;0.00;0.00;;;;;11.02;85.11;97902.28;5095592;28;8810;-56
2023/10/28 02:29:02;;;;;;;;;0.00;0.00;;;;;11.00;84.93;97898.16;5095497;28;8810;-57
2023/10/28 02:31:30;;;;;;;;;0.67;0.67;;;;;10.99;85.30;97897.31;5095777;28;8844;-58
2023/10/28 02:33:58;;;;;;;;;0.75;0.75;;;;;10.99;84.93;97897.31;5095649;28;8834;-56
2023/10/28 02:36:25;;;;;;;;;0.00;0.00;;;;;10.97;84.88;97901.97;5096079;28;8826;-57
2023/10/28 02:38:54;;;;;;;;;0.25;0.00;;;;;10.97;85.00;97909.97;5096395;28;8822;-58
2023/10/28 02:41:21;;;;;;;;;0.00;0.00;;;;;10.98;84.71;97898.31;5100296;28;8821;-58
2023/10/28 02:43:49;;;;;;;;;0.00;0.00;;;;;10.99;84.88;97897.31;5100043;28;8896;-56
2023/10/28 02:46:16;;;;;;;;;0.25;0.00;;;;;10.99;84.97;97902.63;5100045;28;8964;-57
2023/10/28 02:48:44;;;;;;;;;0.00;0.00;;;;;11.00;84.57;97903.47;5099859;28;8810;-57
2023/10/28 02:51:12;;;;;;;;;1.75;1.75;;;;;10.98;85.00;97906.28;5099455;28;9510;-58
2023/10/28 02:53:40;;;;;;;;;0.00;0.00;;;;;10.99;84.82;97899.97;5099401;28;8848;-58
2023/10/28 02:56:08;;;;;;;;;0.25;0.25;;;;;10.99;84.76;97899.16;5099429;28;8813;-58
2023/10/28 02:58:36;;;;;;;;;0.00;0.00;;;;;10.98;84.69;97903.63;5099300;28;8814;-57
2023/10/28 03:01:03;;;;;;;;;0.00;0.00;;;;;10.97;85.17;97909.97;5099330;28;8838;-57
2023/10/28 03:03:32;;;;;;;;;0.00;0.00;;;;;10.97;85.12;97904.66;5099766;28;8850;-56
2023/10/28 03:05:59;;;;;;;;;0.00;0.00;;;;;10.95;84.92;97898.66;5099492;28;8833;-57
2023/10/28 03:08:27;;;;;;;;;0.00;0.00;;;;;10.96;84.77;97912.78;5099648;28;8818;-56
2023/10/28 03:10:54;;;;;;;;;0.00;0.00;;;;;10.95;84.92;97901.34;5099608;28;8814;-58
2023/10/28 03:13:22;;;;;;;;;1.00;1.00;;;;;10.95;85.10;97908.47;5099652;28;8872;-58
2023/10/28 03:15:50;;;;;;;;;1.00;0.75;;;;;10.94;84.54;97904.97;5099637;28;8826;-58
2023/10/28 03:18:18;;;;;;;;;0.00;0.00;;;;;10.94;85.07;97898.84;5099398;28;8834;-56
2023/10/28 03:20:46;;;;;;;;;0.00;0.00;;;;;10.93;84.82;97907.84;5099228;28;8829;-59
2023/10/28 03:23:14;;;;;;;;;0.00;0.00;;;;;10.93;85.10;97897.19;5098707;28;8806;-56
2023/10/28 03:25:41;;;;;;;;;0.00;0.00;;;;;10.90;85.09;97902.84;5099409;28;8834;-56
2023/10/28 03:28:09;;;;;;;;;1.00;1.00;;;;;10.88;85.26;97900.38;5099023;28;8806;-57
2023/10/28 03:30:37;;;;;;;;;0.00;0.00;;;;;10.87;85.13;97906.69;5099253;28;8822;-57
2023/10/28 03:33:04;;;;;;;;;0.00;0.00;;;;;10.86;84.90;97899.69;5099005;28;8910;-56
2023/10/28 03:35:32;;;;;;;;;0.00;0.00;;;;;10.85;85.49;97911.34;5099143;28;9503;-56
2023/10/28 03:38:01;;;;;;;;;0.00;0.00;;;;;10.82;84.94;97906.38;5098797;28;9832;-57
2023/10/28 03:40:28;;;;;;;;;0.00;0.00;;;;;10.84;85.54;97911.53;5099027;28;8851;-58
2023/10/28 03:42:56;;;;;;;;;0.00;0.00;;;;;10.82;85.77;97910.88;5098774;28;8810;-57
2023/10/28 03:45:24;;;;;;;;;0.00;0.00;;;;;10.82;85.41;97918.84;5098881;28;8830;-58
2023/10/28 03:47:52;;;;;;;;;0.00;0.00;;;;;10.81;85.29;97910.06;5098922;28;8830;-58
2023/10/28 03:50:20;;;;;;;;;0.00;0.00;;;;;10.82;85.31;97916.19;5098191;28;9471;-58
2023/10/28 03:52:47;;;;;;;;;0.00;0.00;;;;;10.82;85.14;97924.16;5098280;28;8810;-58
2023/10/28 03:55:15;;;;;;;;;0.67;0.00;;;;;10.82;85.21;97929.50;5098757;28;8829;-57
2023/10/28 03:57:43;;;;;;;;;0.00;0.00;;;;;10.81;85.54;97919.84;5098666;28;8837;-58
2023/10/28 04:00:11;;;;;;;;;0.00;0.00;;;;;10.82;85.29;97918.84;5098273;28;8818;-59
2023/10/28 04:02:39;;;;;;;;;1.00;0.25;;;;;10.83;85.27;97924.00;5098675;28;8830;-56
2023/10/28 04:05:07;;;;;;;;;0.00;0.00;;;;;10.84;85.46;97928.31;5098326;28;8836;-58
2023/10/28 04:07:35;;;;;;;;;0.33;0.33;;;;;10.85;85.33;97927.31;5097932;28;8849;-58
2023/10/28 04:10:07;;;;;;;;;0.00;0.00;;;;;10.86;84.93;97923.66;5098040;28;8825;-55
2023/10/28 04:12:36;;;;;;;;;0.50;0.50;;;;;10.88;85.07;97923.50;5098038;28;8818;-57
2023/10/28 04:15:04;;;;;;;;;0.75;0.75;;;;;10.89;85.22;97919.81;5098406;28;8846;-58
2023/10/28 04:17:33;;;;;;;;;0.00;0.00;;;;;10.90;84.82;97924.13;5097699;28;8841;-56
2023/10/28 04:20:00;;;;;;;;;0.00;0.00;;;;;10.91;85.07;97929.28;5097755;28;9467;-57
2023/10/28 04:22:28;;;;;;;;;0.00;0.00;;;;;10.93;85.13;97940.59;5097997;28;8837;-55
2023/10/28 04:24:56;;;;;;;;;1.00;1.00;;;;;10.95;85.39;97937.78;5097650;28;8826;-57
2023/10/28 04:27:24;;;;;;;;;0.00;0.00;;;;;10.97;85.45;97941.94;5097811;28;8818;-56
2023/10/28 04:29:52;;;;;;;;;0.00;0.00;;;;;10.98;85.25;97932.94;5097826;28;8810;-58
2023/10/28 04:32:22;;;;;;;;;0.50;0.50;;;;;10.98;85.07;97934.75;5097460;28;8810;-58
2023/10/28 04:34:51;;;;;;;;;0.00;0.00;;;;;10.97;85.13;97933.94;5097626;28;8829;-58
2023/10/28 04:37:29;;;;;;;;;0.25;0.00;;;;;10.97;84.87;97936.59;5097735;28;8825;-57
2023/10/28 04:39:57;;;;;;;;;1.00;1.00;;;;;10.96;85.58;97932.28;5097641;28;8842;-58
2023/10/28 04:42:24;;;;;;;;;0.00;0.00;;;;;10.95;85.27;97938.63;5097375;28;8822;-58
2023/10/28 04:44:52;;;;;;;;;0.00;0.00;;;;;10.95;85.10;97933.28;5097240;28;9547;-56
2023/10/28 04:47:19;;;;;;;;;2.50;2.50;;;;;10.95;85.38;97943.09;5097224;28;8818;-58
2023/10/28 04:49:47;;;;;;;;;1.00;1.00;;;;;10.92;84.88;97938.94;5097336;28;8937;-58
2023/10/28 04:52:15;;;;;;;;;1.00;1.00;;;;;10.86;85.31;97934.31;5097621;28;8914;-58
2023/10/28 04:54:42;;;;;;;;;0.75;0.00;;;;;10.79;85.19;97928.03;5097304;28;8856;-58
2023/10/28 04:57:10;;;;;;;;;1.00;1.00;;;;;10.75;85.34;97928.53;5096926;28;8826;-55
2023/10/28 04:59:39;;;;;;;;;0.00;0.00;;;;;10.68;85.59;97931.06;5097150;28;8829;-57
2023/10/28 05:02:07;;;;;;;;;1.00;1.00;;;;;10.64;85.57;97928.91;5097530;28;8836;-56
2023/10/28 05:04:35;;;;;;;;;0.00;0.00;;;;;10.59;85.94;97925.94;5096869;28;9475;-58
2023/10/28 05:07:04;;;;;;;;;1.00;1.00;;;;;10.57;86.12;97928.78;5096903;28;8826;-58
2023/10/28 05:09:31;;;;;;;;;1.00;1.00;;;;;10.54;85.79;97923.78;5096548;28;8813;-57
2023/10/28 05:12:00;;;;;;;;;0.00;0.00;;;;;10.51;85.70;97923.28;5096985;28;8818;-58
2023/10/28 05:14:27;;;;;;;;;0.00;0.00;;;;;10.45;86.19;97929.28;5096820;28;8934;-56
2023/10/28 05:16:55;;;;;;;;;3.25;3.00;;;;;10.41;86.40;97941.28;5096887;28;8864;-57
2023/10/28 05:19:23;;;;;;;;;0.50;0.50;;;;;10.34;86.25;97937.66;5096429;28;8836;-57
2023/10/28 05:21:51;;;;;;;;;0.75;0.75;;;;;10.31;86.40;97933.50;5096562;28;8834;-56
2023/10/28 05:24:18;;;;;;;;;2.00;2.00;;;;;10.29;86.44;97932.84;5096970;28;8810;-57
2023/10/28 05:26:46;;;;;;;;;1.00;0.00;;;;;10.26;86.55;97927.03;5096879;28;8834;-58
2023/10/28 05:29:14;;;;;;;;;0.00;0.00;;;;;10.23;86.58;97936.16;5096534;28;8830;-56
2023/10/28 05:31:44;;;;;;;;;2.00;2.00;;;;;10.20;86.58;97939.19;5096934;28;8826;-57
2023/10/28 05:34:12;;;;;;;;;3.00;3.00;;;;;10.16;86.34;97935.19;5095918;28;8829;-56
2023/10/28 05:36:39;;;;;;;;;2.50;2.50;;;;;10.12;86.63;97941.00;5096683;28;8830;-57
2023/10/28 05:39:08;;;;;;;;;1.00;1.00;;;;;10.09;86.90;97950.16;5096444;28;8841;-55
2023/10/28 05:41:36;;;;;;;;;1.50;1.00;;;;;10.05;86.69;97946.19;5096436;28;8810;-56
2023/10/28 05:44:04;;;;;;;;;1.00;1.00;;;;;10.02;86.72;97938.47;5096176;28;8833;-55
2023/10/28 05:46:32;;;;;;;;;1.00;1.00;;;;;9.97;87.00;97946.16;5095993;28;8841;-57
2023/10/28 05:49:01;;;;;;;;;0.00;0.00;;;;;9.92;87.11;97942.31;5095834;28;8818;-57
2023/10/28 05:51:29;;;;;;;;;1.00;0.50;;;;;9.85;86.82;97943.97;5096161;28;8814;-58
2023/10/28 05:53:57;;;;;;;;;2.00;2.00;;;;;9.80;86.83;97949.78;5096076;28;8850;-57
2023/10/28 05:56:25;;;;;;;;;0.50;0.50;;;;;9.79;87.24;97947.31;5095592;28;8854;-58
2023/10/28 05:58:52;;;;;;;;;0.50;0.50;;;;;9.83;87.32;97954.78;5095304;28;8894;-56
2023/10/28 06:01:20;;;;;;;;;0.00;0.00;;;;;9.87;86.86;97945.47;5095336;28;8846;-57
2023/10/28 06:03:49;;;;;;;;;0.00;0.00;;;;;9.90;87.17;97945.16;5095703;28;8833;-57
2023/10/28 06:06:17;;;;;;;;;0.00;0.00;;;;;9.92;86.66;97948.47;5095997;28;8948;-56
2023/10/28 06:08:45;;;;;;;;;0.50;0.50;;;;;9.95;86.93;97953.44;5095870;28;8857;-56
2023/10/28 06:11:13;;;;;;;;;3.00;1.00;;;;;9.96;86.53;97955.09;5096030;28;8806;-56
2023/10/28 06:13:40;;;;;;;;;0.25;0.25;;;;;9.99;87.00;97957.44;5095042;28;9575;-55
2023/10/28 06:16:08;;;;;;;;;2.50;2.50;;;;;10.04;86.84;97959.63;5095601;28;8822;-56
2023/10/28 06:18:36;;;;;;;;;1.00;1.00;;;;;10.10;86.35;97951.81;5095741;28;8945;-57
2023/10/28 06:21:03;;;;;;;;;0.00;0.00;;;;;10.16;86.34;97955.66;5095583;28;8838;-56
2023/10/28 06:23:31;;;;;;;;;0.25;0.00;;;;;10.22;86.48;97958.44;5095662;28;9505;-57
2023/10/28 06:25:58;;;;;;;;;1.00;1.00;;;;;10.30;86.39;97955.78;5095466;28;8814;-56
2023/10/28 06:28:27;;;;;;;;;0.00;0.00;;;;;10.36;85.82;97960.44;5095359;28;8824;-58
2023/10/28 06:30:57;;;;;;;;;0.75;0.75;;;;;10.41;85.73;97966.03;5095179;28;8833;-57
2023/10/28 06:33:25;;;;;;;;;0.00;0.00;;;;;10.47;85.91;97968.03;5095520;28;8861;-56
2023/10/28 06:35:52;;;;;;;;;0.00;0.00;;;;;10.53;85.75;97969.19;5095385;28;8852;-56
2023/10/28 06:38:20;;;;;;;;;0.00;0.00;;;;;10.56;85.49;97975.00;5095437;28;8818;-58
2023/10/28 06:40:50;;;;;;;;;0.00;0.00;;;;;10.60;85.19;97963.03;5095865;28;8856;-56
2023/10/28 06:43:18;;;;;;;;;0.75;0.75;;;;;10.66;85.91;97964.16;5096156;28;8834;-57
2023/10/28 06:45:46;;;;;;;;;0.00;0.00;;;;;10.70;85.32;97966.31;5096097;28;8831;-56
2023/10/28 06:48:13;;;;;;;;;0.00;0.00;;;;;10.74;85.54;97967.66;5095562;28;8821;-57
2023/10/28 06:50:42;;;;;;;;;0.00;0.00;;;;;10.77;85.30;97969.94;5094978;28;8837;-56
2023/10/28 06:53:13;;;;;;;;;0.00;0.00;;;;;10.81;84.96;97973.94;5094932;28;8833;-55
2023/10/28 06:55:41;;;;;;;;;0.00;0.00;;;;;10.87;85.16;97977.75;5094920;28;8824;-57
2023/10/28 06:58:09;;;;;;;;;0.00;0.00;;;;;10.90;85.22;97975.56;5095179;28;8818;-56
2023/10/28 07:00:37;;;;;;;;;0.00;0.00;;;;;10.94;84.72;97982.19;5094902;28;8830;-56
2023/10/28 07:03:05;;;;;;;;;0.00;0.00;;;;;10.97;84.83;97967.72;5095142;28;8822;-58
2023/10/28 07:05:34;;;;;;;;;0.00;0.00;;;;;11.01;84.90;97980.50;5094671;28;8864;-58
2023/10/28 07:08:02;;;;;;;;;1.00;1.00;;;;;11.04;84.95;97982.84;5094497;28;8902;-58
2023/10/28 07:10:30;;;;;;;;;1.00;0.00;;;;;11.07;84.64;97990.47;5094860;28;8834;-56
2023/10/28 07:12:58;;;;;;;;;0.00;0.00;;;;;11.10;84.93;97983.97;5094396;28;8852;-55
2023/10/28 07:15:25;;;;;;;;;0.00;0.00;;;;;11.11;84.67;97981.16;5094380;28;8842;-58
2023/10/28 07:17:54;;;;;;;;;0.00;0.00;;;;;11.11;84.57;97981.16;5093553;28;8822;-57
2023/10/28 07:20:22;;;;;;;;;0.00;0.00;;;;;11.10;84.58;97990.16;5093128;28;8969;-56
2023/10/28 07:22:50;;;;;;;;;0.00;0.00;;;;;11.06;84.42;97980.81;5094332;28;8916;-58
2023/10/28 07:25:18;;;;;;;;;0.00;0.00;;;;;11.06;84.15;97993.34;5094409;28;8838;-56
2023/10/28 07:27:45;;;;;;;;;0.00;0.00;;;;;11.06;84.74;97988.00;5098110;28;8882;-58
2023/10/28 07:30:13;;;;;;;;;0.00;0.00;;;;;11.06;84.88;97994.16;5098156;28;8862;-56
2023/10/28 07:32:41;;;;;;;;;0.00;0.00;;;;;11.07;84.92;97985.16;5098566;28;8861;-58
2023/10/28 07:35:10;;;;;;;;;0.00;0.00;;;;;11.07;84.96;97984.34;5098311;28;8915;-58
2023/10/28 07:37:38;;;;;;;;;0.00;0.00;;;;;11.08;85.33;97991.31;5098229;28;8818;-56
2023/10/28 07:40:05;;;;;;;;;0.00;0.00;;;;;11.07;85.09;97990.47;5098036;28;8826;-56
2023/10/28 07:42:34;;;;;;;;;0.00;0.00;;;;;11.08;84.98;97992.13;5097903;28;8834;-56
2023/10/28 07:45:04;;;;;;;;;0.00;0.00;;;;;11.10;84.95;97994.63;5096198;28;8882;-58
2023/10/28 07:47:32;;;;;;;;;0.00;0.00;;;;;11.12;84.81;97988.13;5095978;28;8845;-58
2023/10/28 07:49:59;;;;;;;;;0.00;0.00;;;;;11.16;84.98;97997.41;5096422;28;8903;-56
2023/10/28 07:52:27;;;;;;;;;0.00;0.00;;;;;11.20;84.45;97990.75;5096108;28;8836;-58
2023/10/28 07:54:55;;;;;;;;;0.00;0.00;;;;;11.22;85.11;97999.41;5096765;28;8842;-57
2023/10/28 07:57:24;;;;;;;;;0.00;0.00;;;;;11.23;84.82;98003.72;5096517;28;8834;-56
2023/10/28 07:59:53;;;;;;;;;0.00;0.00;;;;;11.25;84.57;97993.75;5096927;28;8833;-56
2023/10/28 08:02:20;;;;;;;;;0.00;0.00;;;;;11.26;84.88;98000.72;5096725;28;8840;-59
2023/10/28 08:04:48;;;;;;;;;0.75;0.00;;;;;11.30;84.80;98010.00;5097022;28;8833;-57
2023/10/28 08:07:16;;;;;;;;;0.00;0.00;;;;;11.35;84.76;98002.34;5095762;28;9856;-58
2023/10/28 08:09:45;;;;;;;;;0.00;0.00;;;;;11.40;84.18;97996.50;5095551;28;8830;-56
2023/10/28 08:12:13;;;;;;;;;0.00;0.00;;;;;11.45;84.15;98007.47;5095920;28;8826;-57
2023/10/28 08:14:46;;;;;;;;;0.00;0.00;;;;;11.51;84.03;98002.25;5095752;28;8861;-58
2023/10/28 08:17:16;;;;;;;;;0.00;0.00;;;;;11.60;84.13;98005.75;5095969;28;8910;-58
2023/10/28 08:19:43;;;;;;;;;0.00;0.00;;;;;11.66;83.94;97997.88;5096459;28;8834;-58
2023/10/28 08:22:12;;;;;;;;;0.00;0.00;;;;;11.73;83.97;97998.81;5096165;28;8837;-58
2023/10/28 08:24:41;;;;;;;;;0.00;0.00;;;;;11.84;83.09;98005.59;5096195;28;8830;-58
2023/10/28 08:27:09;;;;;;;;;0.00;0.00;;;;;11.98;82.96;98007.47;5096477;28;8822;-57
2023/10/28 08:29:37;;;;;;;;;0.00;0.00;;;;;12.15;83.02;98009.84;5096912;28;8868;-58
2023/10/28 08:32:05;;;;;;;;;0.00;0.00;;;;;12.28;83.14;98010.06;5096514;28;8833;-57
2023/10/28 08:34:33;;;;;;;;;0.00;0.00;;;;;12.36;82.29;98016.16;5096064;28;8838;-56
2023/10/28 08:37:01;;;;;;;;;0.00;0.00;;;;;12.43;82.48;98018.94;5096613;28;8830;-56
2023/10/28 08:39:31;;;;;;;;;0.00;0.00;;;;;12.52;82.04;98015.16;5096646;28;8907;-58
2023/10/28 08:41:59;;;;;;;;;0.00;0.00;;;;;12.58;81.84;98027.81;5096297;28;9507;-56
2023/10/28 08:44:28;;;;;;;;;0.00;0.00;;;;;12.62;81.96;98023.78;5096421;28;8842;-57
2023/10/28 08:46:56;;;;;;;;;0.25;0.00;;;;;12.61;82.22;98025.59;5095526;28;9654;-56
2023/10/28 08:49:24;;;;;;;;;0.00;0.00;;;;;12.59;81.94;98032.97;5095937;28;8822;-58
2023/10/28 08:51:52;;;;;;;;;0.00;0.00;;;;;12.56;82.20;98043.19;5096057;28;8929;-57
2023/10/28 08:54:20;;;;;;;;;0.00;0.00;;;;;12.53;82.20;98040.88;5096398;28;8980;-56
2023/10/28 08:56:47;;;;;;;;;0.25;0.25;;;;;12.50;81.81;98041.22;5096072;28;8838;-59
2023/10/28 08:59:16;;;;;;;;;0.00;0.00;;;;;12.47;82.24;98031.72;5095328;28;8818;-58
2023/10/28 09:01:44;;;;;;;;;0.00;0.00;;;;;12.47;82.02;98044.28;5094842;28;8838;-58
2023/10/28 09:04:12;;;;;;;;;0.00;0.00;;;;;12.45;81.89;98039.09;5095113;28;8861;-57
2023/10/28 09:06:40;;;;;;;;;0.00;0.00;;;;;12.48;82.02;98051.25;5096040;28;8841;-57
2023/10/28 09:09:12;;;;;;;;;0.00;0.00;;;;;12.49;82.37;98060.94;5096128;28;8864;-56
2023/10/28 09:11:40;;;;;;;;;0.00;0.00;;;;;12.48;81.86;98067.28;5095734;28;8845;-57
2023/10/28 09:14:08;;;;;;;;;0.00;0.00;;;;;12.31;82.04;98066.56;5095266;28;8857;-56
2023/10/28 09:16:36;;;;;;;;;0.00;0.00;;;;;12.16;83.11;98071.03;5094438;28;8836;-58
2023/10/28 09:19:04;;;;;;;;;0.00;0.00;;;;;12.04;83.05;98072.47;5093614;28;8834;-56
2023/10/28 09:21:32;;;;;;;;;0.75;0.00;;;;;11.98;83.66;98070.50;5094009;28;8918;-58
2023/10/28 09:24:03;;;;;;;;;0.00;0.00;;;;;11.94;83.67;98076.38;5094408;28;8964;-58
2023/10/28 09:26:31;;;;;;;;;0.00;0.00;;;;;11.91;83.95;98082.03;5094665;28;8826;-58
2023/10/28 09:28:59;;;;;;;;;0.00;0.00;;;;;11.90;83.88;98084.88;5094797;28;8822;-56
2023/10/28 09:31:28;;;;;;;;;0.00;0.00;;;;;11.90;83.82;98085.72;5094541;28;8814;-58
2023/10/28 09:33:55;;;;;;;;;0.00;0.00;;;;;11.93;83.44;98085.38;5095005;28;8988;-58
2023/10/28 09:36:25;;;;;;;;;0.00;0.00;;;;;11.99;83.96;98080.16;5094976;28;8822;-56
2023/10/28 09:38:53;;;;;;;;;0.00;0.00;;;;;12.06;84.01;98080.25;5095020;28;8855;-56
2023/10/28 09:41:21;;;;;;;;;0.00;0.00;;;;;12.09;83.73;98083.41;5095197;28;8830;-58
2023/10/28 09:43:49;;;;;;;;;1.00;1.00;;;;;12.12;83.45;98090.25;5095142;28;10084;-57
2023/10/28 09:46:17;;;;;;;;;5.00;5.00;;;;;12.15;83.75;98087.22;5094809;28;8834;-58
2023/10/28 09:48:48;;;;;;;;;0.00;0.00;;;;;12.18;83.42;98086.88;5093443;28;8822;-56
2023/10/28 09:51:15;;;;;;;;;9.50;9.25;;;;;12.22;83.85;98081.00;5093617;28;8848;-58
2023/10/28 09:53:44;;;;;;;;;1.00;1.00;;;;;12.29;83.45;98081.09;5093960;28;8838;-55
2023/10/28 09:56:13;;;;;;;;;1.00;1.00;;;;;12.33;83.01;98088.59;5093013;28;8842;-57
2023/10/28 09:58:41;;;;;;;;;2.50;1.50;;;;;12.37;83.19;98081.03;5092717;28;8829;-56
2023/10/28 10:01:09;;;;;;;;;0.25;0.25;;;;;12.39;83.21;98089.72;5093615;28;8830;-56
2023/10/28 10:03:37;;;;;;;;;0.75;0.75;;;;;12.38;82.77;98082.72;5093650;28;8854;-58
2023/10/28 10:06:05;;;;;;;;;0.00;0.00;;;;;12.36;83.22;98092.72;5094347;28;8845;-58
2023/10/28 10:08:36;;;;;;;;;0.00;0.00;;;;;12.32;83.18;98091.44;5094548;28;8830;-56
2023/10/28 10:11:04;;;;;;;;;0.75;0.75;;;;;12.26;83.63;98092.16;5094921;28;8854;-58
2023/10/28 10:13:33;;;;;;;;;3.00;3.00;;;;;12.22;83.56;98097.00;5094484;28;8830;-55
2023/10/28 10:16:03;;;;;;;;;2.50;2.00;;;;;12.17;83.26;98094.03;5094994;28;8814;-58
2023/10/28 10:18:31;;;;;;;;;3.75;3.75;;;;;12.16;83.83;98092.38;5094727;28;9676;-56
2023/10/28 10:21:00;;;;;;;;;0.00;0.00;;;;;12.23;83.85;98087.19;5094788;28;8849;-56
2023/10/28 10:23:27;;;;;;;;;3.50;3.50;;;;;12.32;84.06;98081.56;5094319;28;8850;-59
2023/10/28 10:25:56;;;;;;;;;9.50;9.50;;;;;12.44;83.43;98090.00;5094890;28;8822;-56
2023/10/28 10:28:24;;;;;;;;;0.50;0.50;;;;;12.53;83.63;98083.59;5094568;28;8842;-59
2023/10/28 10:30:53;;;;;;;;;9.50;9.00;;;;;12.60;83.28;98081.88;5094126;28;8822;-55
2023/10/28 10:33:20;;;;;;;;;6.75;6.75;;;;;12.67;83.16;98080.97;5093326;28;8838;-58
2023/10/28 10:35:48;;;;;;;;;1.00;1.00;;;;;12.76;82.74;98084.41;5094050;28;8818;-59
2023/10/28 10:38:19;;;;;;;;;0.00;0.00;;;;;12.83;82.40;98080.00;5094320;28;8829;-59
2023/10/28 10:40:47;;;;;;;;;0.00;0.00;;;;;12.88;82.82;98085.59;5094516;28;8841;-58
2023/10/28 10:43:15;;;;;;;;;10.50;10.00;;;;;12.92;82.08;98085.06;5094179;28;8842;-56
2023/10/28 10:45:43;;;;;;;;;6.50;6.25;;;;;12.98;82.04;98088.88;5094845;28;8968;-58
2023/10/28 10:48:11;;;;;;;;;0.00;0.00;;;;;13.05;82.43;98087.16;5094591;28;8802;-58
2023/10/28 10:50:38;;;;;;;;;0.00;0.00;;;;;13.13;81.90;98092.41;5094259;28;9545;-57
2023/10/28 10:53:07;;;;;;;;;0.00;0.00;;;;;13.17;81.99;98089.19;5094200;28;8802;-59
2023/10/28 10:55:35;;;;;;;;;0.00;0.00;;;;;13.21;82.30;98095.00;5094651;28;8825;-59
2023/10/28 10:58:03;;;;;;;;;0.00;0.00;;;;;13.23;81.69;98096.44;5094472;28;8834;-58
2023/10/28 11:00:32;;;;;;;;;0.00;0.00;;;;;13.25;81.71;98090.91;5096162;28;8914;-59
2023/10/28 11:03:00;;;;;;;;;0.00;0.00;;;;;13.25;81.85;98080.22;5097934;28;8837;-58
2023/10/28 11:05:28;;;;;;;;;0.00;0.00;;;;;13.27;81.75;98086.22;5097267;28;8969;-58
2023/10/28 11:07:56;;;;;;;;;0.00;0.00;;;;;13.33;81.93;98072.13;5097738;28;8818;-58
2023/10/28 11:10:24;;;;;;;;;1.00;1.00;;;;;13.48;81.75;98081.81;5097460;28;8931;-57
2023/10/28 11:12:52;;;;;;;;;0.00;0.00;;;;;13.82;80.47;98073.16;5097321;28;8845;-58
2023/10/28 11:15:22;;;;;;;;;0.50;0.00;;;;;14.37;79.74;98060.84;5097474;28;8842;-58
2023/10/28 11:17:51;;;;;;;;;1.00;0.00;;;;;14.77;78.62;98048.56;5097529;28;8838;-58
2023/10/28 11:20:20;;;;;;;;;0.00;0.00;;;;;15.03;77.99;98038.88;5097755;28;8838;-58
2023/10/28 11:22:48;;;;;;;;;0.00;0.00;;;;;15.33;77.40;98045.69;5097476;28;8826;-58
2023/10/28 11:25:17;;;;;;;;;0.00;0.00;;;;;15.44;77.03;98038.94;5097200;28;8903;-57
2023/10/28 11:27:47;;;;;;;;;0.00;0.00;;;;;15.41;76.80;98039.34;5096908;28;8826;-57
2023/10/28 11:30:14;;;;;;;;;0.00;0.00;;;;;15.26;76.96;98039.44;5097069;28;8856;-60
2023/10/28 11:32:42;;;;;;;;;0.00;0.00;;;;;15.08;77.77;98040.97;5097644;28;9986;-57
2023/10/28 11:35:11;;;;;;;;;0.00;0.00;;;;;14.99;78.44;98047.50;5097518;28;8842;-60
2023/10/28 11:37:40;;;;;;;;;0.00;0.00;;;;;15.03;77.95;98044.25;5097542;28;8849;-57
2023/10/28 11:40:09;;;;;;;;;0.00;0.00;;;;;15.18;77.33;98049.50;5097833;28;8837;-57
2023/10/28 11:42:37;;;;;;;;;0.00;0.00;;;;;15.54;76.41;98037.53;5096601;28;8931;-57
2023/10/28 11:45:06;;;;;;;;;0.00;0.00;;;;;15.75;76.11;98033.91;5098070;28;8854;-57